Time;durP1;ratioP1;P1;durP2;ratioP2;P2;SDS_P1;SDS_P2;PMS_P1;PMS_P2;Temp;Humidity;BMP_temperature;BMP_pressure;BME280_temperature;BME280_humidity;BME280_pressure;Samples;Min_cycle;Max_cycle;Signal;HPM_P1;HPM_P2
2023/12/13 00:00:11;;;;;;;1.60;1.20;;;8.40;98.20;;;;;;5070329;28;20484;-78
2023/12/13 00:02:37;;;;;;;1.60;1.20;;;8.30;98.20;;;;;;5056103;28;20572;-78
2023/12/13 00:05:07;;;;;;;1.60;1.20;;;8.30;98.20;;;;;;5065253;28;20504;-78
2023/12/13 00:07:33;;;;;;;1.63;1.20;;;8.30;98.20;;;;;;5058756;28;20488;-81
2023/12/13 00:10:00;;;;;;;1.60;1.20;;;8.30;98.20;;;;;;5071332;28;20508;-80
2023/12/13 00:12:27;;;;;;;1.63;1.20;;;8.30;98.20;;;;;;5064124;28;20470;-82
2023/12/13 00:14:55;;;;;;;1.60;1.20;;;8.30;98.20;;;;;;5072725;28;20534;-81
2023/12/13 00:17:22;;;;;;;1.60;1.20;;;8.20;98.20;;;;;;5060861;28;20476;-79
2023/12/13 00:19:48;;;;;;;1.60;1.20;;;8.20;98.20;;;;;;5072530;28;20457;-79
2023/12/13 00:22:17;;;;;;;1.60;1.20;;;8.20;98.20;;;;;;5061591;28;20471;-78
2023/12/13 00:24:43;;;;;;;1.70;1.20;;;8.20;98.20;;;;;;5074221;28;20454;-80
2023/12/13 00:27:10;;;;;;;1.60;1.20;;;8.20;98.20;;;;;;5062992;28;21037;-79
2023/12/13 00:29:37;;;;;;;1.60;1.20;;;8.10;98.20;;;;;;5069024;28;20484;-80
2023/12/13 00:32:04;;;;;;;1.60;1.30;;;8.10;98.20;;;;;;5061657;28;20505;-81
2023/12/13 00:34:31;;;;;;;1.60;1.20;;;8.00;98.20;;;;;;5073317;28;20611;-79
2023/12/13 00:36:58;;;;;;;1.60;1.20;;;8.00;98.20;;;;;;5056987;28;21008;-79
2023/12/13 00:39:26;;;;;;;1.60;1.20;;;8.00;98.20;;;;;;5069797;28;20724;-79
2023/12/13 00:41:53;;;;;;;1.60;1.20;;;7.90;98.20;;;;;;5063105;28;20511;-79
2023/12/13 00:44:19;;;;;;;1.63;1.20;;;7.90;98.20;;;;;;5068508;28;20488;-79
2023/12/13 00:46:46;;;;;;;1.60;1.20;;;7.90;98.20;;;;;;5057114;28;20486;-79
2023/12/13 00:49:14;;;;;;;1.60;1.20;;;7.90;98.20;;;;;;5069085;28;20457;-83
2023/12/13 00:51:41;;;;;;;1.60;1.17;;;7.90;98.20;;;;;;5068071;28;20472;-82
2023/12/13 00:54:08;;;;;;;1.60;1.20;;;7.90;98.20;;;;;;5076311;28;20557;-82
2023/12/13 00:56:40;;;;;;;1.60;1.20;;;8.00;98.20;;;;;;5065503;28;20487;-81
2023/12/13 00:59:06;;;;;;;1.60;1.20;;;8.00;98.20;;;;;;5072911;28;20465;-81
2023/12/13 01:01:33;;;;;;;1.63;1.30;;;8.00;98.20;;;;;;5068110;28;20810;-80
2023/12/13 01:04:00;;;;;;;1.60;1.10;;;8.00;98.20;;;;;;5073504;28;20536;-81
2023/12/13 01:06:27;;;;;;;1.60;1.20;;;8.00;98.20;;;;;;5061503;28;20474;-80
2023/12/13 01:08:53;;;;;;;1.60;1.30;;;8.00;98.20;;;;;;5072946;28;20485;-80
2023/12/13 01:11:24;;;;;;;1.60;1.20;;;8.00;98.20;;;;;;5061231;28;20476;-80
2023/12/13 01:13:52;;;;;;;1.60;1.20;;;8.00;98.20;;;;;;5073065;28;20480;-80
2023/12/13 01:16:19;;;;;;;1.63;1.20;;;8.00;98.20;;;;;;5057873;28;20561;-80
2023/12/13 01:18:46;;;;;;;1.60;1.20;;;8.00;98.20;;;;;;5072796;28;20461;-80
2023/12/13 01:21:13;;;;;;;1.70;1.30;;;8.10;98.20;;;;;;5062930;28;20499;-80
2023/12/13 01:23:39;;;;;;;1.63;1.20;;;8.10;98.20;;;;;;5070252;28;20466;-80
2023/12/13 01:26:06;;;;;;;1.60;1.20;;;8.10;98.20;;;;;;5062806;28;21517;-81
2023/12/13 01:28:33;;;;;;;1.60;1.20;;;8.10;98.20;;;;;;5067464;28;20461;-80
2023/12/13 01:31:07;;;;;;;1.60;1.20;;;8.10;98.20;;;;;;5063087;28;20496;-80
2023/12/13 01:33:34;;;;;;;1.67;1.30;;;8.10;98.20;;;;;;5071702;28;20497;-80
2023/12/13 01:36:02;;;;;;;1.60;1.20;;;8.10;98.20;;;;;;5066303;28;20871;-79
2023/12/13 01:38:29;;;;;;;1.60;1.17;;;8.00;98.20;;;;;;5074785;28;20469;-79
2023/12/13 01:40:56;;;;;;;1.60;1.20;;;8.00;98.20;;;;;;5062955;28;20492;-80
2023/12/13 01:43:24;;;;;;;1.60;1.20;;;8.00;98.20;;;;;;5075352;28;20453;-80
2023/12/13 01:45:54;;;;;;;1.63;1.30;;;8.00;98.20;;;;;;5060241;28;20516;-81
2023/12/13 01:48:23;;;;;;;1.60;1.20;;;8.00;98.20;;;;;;5072531;28;20465;-82
2023/12/13 01:50:51;;;;;;;1.60;1.20;;;8.00;98.20;;;;;;5061393;28;20509;-81
2023/12/13 01:53:18;;;;;;;1.60;1.20;;;8.00;98.20;;;;;;5070240;28;20866;-82
2023/12/13 01:55:45;;;;;;;1.60;1.20;;;8.00;98.20;;;;;;5064891;28;20453;-78
2023/12/13 01:58:15;;;;;;;1.60;1.20;;;8.00;98.20;;;;;;5043554;28;20800;-82
2023/12/13 02:00:42;;;;;;;1.60;1.20;;;8.00;98.20;;;;;;5071045;28;20491;-81
2023/12/13 02:03:15;;;;;;;1.60;1.20;;;8.00;98.20;;;;;;5062232;28;20560;-80
2023/12/13 02:05:44;;;;;;;1.60;1.20;;;8.10;98.20;;;;;;5068838;28;20457;-82
2023/12/13 02:08:11;;;;;;;1.70;1.23;;;8.00;98.20;;;;;;5062197;28;20474;-84
2023/12/13 02:10:38;;;;;;;1.60;1.20;;;8.10;98.20;;;;;;5075775;28;20507;-82
2023/12/13 02:13:05;;;;;;;1.60;1.13;;;8.10;98.20;;;;;;5062997;28;20481;-83
2023/12/13 02:15:35;;;;;;;1.60;1.20;;;8.10;98.20;;;;;;5068967;28;20488;-82
2023/12/13 02:18:02;;;;;;;1.60;1.20;;;8.10;98.20;;;;;;5059117;28;20485;-82
2023/12/13 02:20:29;;;;;;;1.60;1.20;;;8.10;98.20;;;;;;5076956;28;20485;-82
2023/12/13 02:22:57;;;;;;;1.60;1.20;;;8.20;98.20;;;;;;5069363;28;20886;-81
2023/12/13 02:25:34;;;;;;;1.60;1.20;;;8.20;98.20;;;;;;5075250;28;20460;-80
2023/12/13 02:28:01;;;;;;;1.60;1.17;;;8.20;98.20;;;;;;5072539;28;21072;-82
2023/12/13 02:30:29;;;;;;;1.60;1.20;;;8.20;98.20;;;;;;5074932;28;20484;-81
2023/12/13 02:32:55;;;;;;;1.60;1.20;;;8.20;98.20;;;;;;5053678;28;20474;-81
2023/12/13 02:35:22;;;;;;;1.60;1.27;;;8.20;98.20;;;;;;5075825;28;20476;-81
2023/12/13 02:37:49;;;;;;;1.63;1.30;;;8.30;98.20;;;;;;5061406;28;20539;-80
2023/12/13 02:40:18;;;;;;;1.60;1.20;;;8.30;98.20;;;;;;5073136;28;20499;-81
2023/12/13 02:42:45;;;;;;;1.60;1.20;;;8.30;98.20;;;;;;5068401;28;20795;-81
2023/12/13 02:45:13;;;;;;;1.60;1.20;;;8.30;98.20;;;;;;5075723;28;20835;-81
2023/12/13 02:47:42;;;;;;;1.60;1.30;;;8.30;98.20;;;;;;5062386;28;20487;-80
2023/12/13 02:50:09;;;;;;;1.60;1.20;;;8.30;98.20;;;;;;5075081;28;20970;-82
2023/12/13 02:52:36;;;;;;;1.60;1.20;;;8.30;98.20;;;;;;5067209;28;20481;-81
2023/12/13 02:55:03;;;;;;;1.60;1.10;;;8.30;98.20;;;;;;5072838;28;20508;-81
2023/12/13 02:57:31;;;;;;;1.60;1.20;;;8.30;98.20;;;;;;5066244;28;20483;-80
2023/12/13 02:59:58;;;;;;;1.63;1.20;;;8.30;98.20;;;;;;5078082;28;21080;-80
2023/12/13 03:02:25;;;;;;;1.60;1.20;;;8.30;98.20;;;;;;5067933;28;20576;-81
2023/12/13 03:04:52;;;;;;;1.60;1.20;;;8.30;98.20;;;;;;5076308;28;20457;-81
2023/12/13 03:07:19;;;;;;;1.60;1.20;;;8.30;98.20;;;;;;5066710;28;21033;-81
2023/12/13 03:09:46;;;;;;;1.60;1.20;;;8.30;98.20;;;;;;5073481;28;20964;-80
2023/12/13 03:12:13;;;;;;;1.60;1.20;;;8.30;98.20;;;;;;5068186;28;20495;-81
2023/12/13 03:14:41;;;;;;;1.60;1.17;;;8.30;98.20;;;;;;5073627;28;20507;-81
2023/12/13 03:17:08;;;;;;;1.60;1.10;;;8.30;98.20;;;;;;5067484;28;20489;-81
2023/12/13 03:19:35;;;;;;;1.60;1.20;;;8.30;98.20;;;;;;5074915;28;20465;-81
2023/12/13 03:22:02;;;;;;;1.60;1.20;;;8.30;98.20;;;;;;5067925;28;20485;-79
2023/12/13 03:24:29;;;;;;;1.60;1.20;;;8.30;98.20;;;;;;5075162;28;20833;-78
2023/12/13 03:26:56;;;;;;;1.60;1.20;;;8.30;98.20;;;;;;5067395;28;20483;-78
2023/12/13 03:29:22;;;;;;;1.60;1.20;;;8.30;98.20;;;;;;5072713;28;21023;-79
2023/12/13 03:31:50;;;;;;;1.63;1.20;;;8.30;98.20;;;;;;5064688;28;20491;-78
2023/12/13 03:34:17;;;;;;;1.60;1.20;;;8.30;98.20;;;;;;5074477;28;20484;-80
2023/12/13 03:36:44;;;;;;;1.60;1.20;;;8.30;98.20;;;;;;5067938;28;20540;-80
2023/12/13 03:39:11;;;;;;;1.63;1.20;;;8.30;98.20;;;;;;5080316;28;20452;-80
2023/12/13 03:41:38;;;;;;;1.60;1.20;;;8.30;98.20;;;;;;5066250;28;20481;-80
2023/12/13 03:44:05;;;;;;;1.63;1.20;;;8.30;98.20;;;;;;5076824;28;20464;-81
2023/12/13 03:46:31;;;;;;;1.63;1.30;;;8.30;98.20;;;;;;5062037;28;20473;-80
2023/12/13 03:49:00;;;;;;;1.60;1.20;;;8.30;98.20;;;;;;5076970;28;20557;-82
2023/12/13 03:51:26;;;;;;;1.60;1.20;;;8.30;98.20;;;;;;5068667;28;20491;-83
2023/12/13 03:53:53;;;;;;;1.60;1.20;;;8.30;98.20;;;;;;5076357;28;20477;-82
2023/12/13 03:56:20;;;;;;;1.60;1.20;;;8.30;98.20;;;;;;5068573;28;20562;-83
2023/12/13 03:58:47;;;;;;;1.60;1.20;;;8.30;98.20;;;;;;5075702;28;20496;-82
2023/12/13 04:01:14;;;;;;;1.60;1.10;;;8.30;98.20;;;;;;5071285;28;20476;-83
2023/12/13 04:03:42;;;;;;;1.60;1.13;;;8.40;98.20;;;;;;5081432;28;20521;-83
2023/12/13 04:06:10;;;;;;;1.60;1.20;;;8.40;98.20;;;;;;5068277;28;20481;-83
2023/12/13 04:08:37;;;;;;;1.60;1.20;;;8.40;98.20;;;;;;5071263;28;20755;-78
2023/12/13 04:11:04;;;;;;;1.60;1.20;;;8.40;98.20;;;;;;5062186;28;20492;-79
2023/12/13 04:13:31;;;;;;;1.60;1.20;;;8.40;98.20;;;;;;5071513;28;20485;-79
2023/12/13 04:15:57;;;;;;;1.60;1.20;;;8.50;98.20;;;;;;5063888;28;20463;-79
2023/12/13 04:18:24;;;;;;;1.60;1.20;;;8.50;98.20;;;;;;5076355;28;20461;-81
2023/12/13 04:20:59;;;;;;;1.60;1.20;;;8.50;98.20;;;;;;5064472;28;21149;-83
2023/12/13 04:23:27;;;;;;;1.60;1.20;;;8.50;98.20;;;;;;5075792;28;20461;-82
2023/12/13 04:25:54;;;;;;;1.60;1.20;;;8.60;98.20;;;;;;5069495;28;20517;-82
2023/12/13 04:28:20;;;;;;;1.60;1.10;;;8.60;98.20;;;;;;5080770;28;20465;-82
2023/12/13 04:30:47;;;;;;;1.60;1.17;;;8.60;98.20;;;;;;5075927;28;20516;-82
2023/12/13 04:33:18;;;;;;;1.60;1.30;;;8.50;98.20;;;;;;5094021;28;20541;-80
2023/12/13 04:35:45;;;;;;;1.63;1.20;;;8.60;98.20;;;;;;5088758;28;20497;-81
2023/12/13 04:38:12;;;;;;;1.60;1.23;;;8.50;98.20;;;;;;5051866;28;20520;-83
2023/12/13 04:40:40;;;;;;;1.60;1.20;;;8.50;98.20;;;;;;5077615;28;20495;-83
2023/12/13 04:43:07;;;;;;;1.60;1.20;;;8.50;98.20;;;;;;5067497;28;21001;-82
2023/12/13 04:45:46;;;;;;;1.60;1.27;;;8.50;98.20;;;;;;5076710;28;20457;-82
2023/12/13 04:48:13;;;;;;;1.63;1.20;;;8.50;98.20;;;;;;5048372;28;20882;-82
2023/12/13 04:50:40;;;;;;;1.60;1.20;;;8.50;98.20;;;;;;5073476;28;20791;-81
2023/12/13 04:53:06;;;;;;;1.60;1.10;;;8.60;98.20;;;;;;5070396;28;20469;-81
2023/12/13 04:55:33;;;;;;;1.60;1.20;;;8.60;98.20;;;;;;5073055;28;20580;-81
2023/12/13 04:58:02;;;;;;;1.60;1.20;;;8.60;98.20;;;;;;5065113;28;20478;-81
2023/12/13 05:00:29;;;;;;;1.60;1.20;;;8.60;98.20;;;;;;5078829;28;20481;-80
2023/12/13 05:02:56;;;;;;;1.60;1.20;;;8.50;98.20;;;;;;5058986;28;20619;-81
2023/12/13 05:05:22;;;;;;;1.70;1.30;;;8.50;98.20;;;;;;5062108;28;20467;-82
2023/12/13 05:07:49;;;;;;;1.60;1.20;;;8.50;98.20;;;;;;5053610;28;20573;-82
2023/12/13 05:10:17;;;;;;;1.60;1.20;;;8.50;98.20;;;;;;5068836;28;20569;-83
2023/12/13 05:12:46;;;;;;;1.60;1.17;;;8.50;98.20;;;;;;5068824;28;20529;-82
2023/12/13 05:15:14;;;;;;;1.60;1.20;;;8.50;98.20;;;;;;5072969;28;20584;-82
2023/12/13 05:17:41;;;;;;;1.60;1.20;;;8.50;98.20;;;;;;5061922;28;20478;-82
2023/12/13 05:20:10;;;;;;;1.60;1.20;;;8.50;98.20;;;;;;5069587;28;20484;-81
2023/12/13 05:22:36;;;;;;;1.60;1.17;;;8.50;98.20;;;;;;5060303;28;20505;-81
2023/12/13 05:25:04;;;;;;;1.60;1.20;;;8.50;98.20;;;;;;5063883;28;20466;-81
2023/12/13 05:27:30;;;;;;;1.60;1.20;;;8.50;98.20;;;;;;5055360;28;21039;-80
2023/12/13 05:29:57;;;;;;;1.60;1.20;;;8.50;98.20;;;;;;5069515;28;20476;-81
2023/12/13 05:32:26;;;;;;;1.60;1.20;;;8.50;98.20;;;;;;5062742;28;20483;-80
2023/12/13 05:34:52;;;;;;;1.60;1.20;;;8.50;98.20;;;;;;5071115;28;20474;-80
2023/12/13 05:37:29;;;;;;;1.60;1.20;;;8.50;98.20;;;;;;5051162;28;20478;-80
2023/12/13 05:39:56;;;;;;;1.60;1.10;;;8.50;98.20;;;;;;5064884;28;20457;-81
2023/12/13 05:42:24;;;;;;;1.67;1.30;;;8.50;98.20;;;;;;5055500;28;20537;-80
2023/12/13 05:44:51;;;;;;;1.63;1.20;;;8.50;98.20;;;;;;5069760;28;20986;-80
2023/12/13 05:47:18;;;;;;;1.60;1.20;;;8.50;98.20;;;;;;5062115;28;20566;-80
2023/12/13 05:49:46;;;;;;;1.60;1.20;;;8.50;98.20;;;;;;5076548;28;20488;-81
2023/12/13 05:52:23;;;;;;;1.60;1.20;;;8.50;98.20;;;;;;5073242;28;20500;-79
2023/12/13 05:55:21;;;;;;;1.60;1.20;;;8.40;98.20;;;;;;5093172;28;20501;-78
2023/12/13 05:59:04;;;;;;;1.60;1.20;;;8.50;98.20;;;;;;5084822;28;20476;-79
2023/12/13 06:04:09;;;;;;;1.60;1.20;;;8.40;98.20;;;;;;5106532;22;20586;-80
2023/12/13 06:07:01;;;;;;;;;;;;;;;;;;;;;
2023/12/13 06:09:49;;;;;;;1.60;1.20;;;8.40;98.20;;;;;;5106379;28;20452;-79
2023/12/13 06:12:17;;;;;;;1.60;1.20;;;8.40;98.20;;;;;;5068563;28;20472;-78
2023/12/13 06:14:46;;;;;;;1.60;1.27;;;8.40;98.20;;;;;;5086265;28;20556;-79
2023/12/13 06:17:29;;;;;;;1.60;1.20;;;8.40;98.20;;;;;;5060581;28;20544;-79
2023/12/13 06:20:06;;;;;;;1.60;1.20;;;8.40;98.20;;;;;;5066249;28;20495;-79
2023/12/13 06:22:34;;;;;;;1.60;1.20;;;8.40;98.20;;;;;;5062102;28;20470;-79
2023/12/13 06:25:01;;;;;;;1.60;1.20;;;8.40;98.20;;;;;;5062145;28;20512;-80
2023/12/13 06:27:28;;;;;;;1.60;1.20;;;8.40;98.20;;;;;;5052302;28;20488;-81
2023/12/13 06:29:55;;;;;;;1.60;1.17;;;8.40;98.20;;;;;;5058034;28;20552;-80
2023/12/13 06:32:22;;;;;;;1.60;1.20;;;8.30;98.20;;;;;;5059993;28;20616;-79
2023/12/13 06:37:56;;;;;;;1.60;1.23;;;8.30;98.20;;;;;;5068686;28;20484;-80
2023/12/13 06:40:24;;;;;;;1.60;1.20;;;8.30;98.20;;;;;;5075551;28;20625;-80
2023/12/13 06:42:53;;;;;;;1.60;1.30;;;8.20;98.20;;;;;;5039337;28;20873;-80
2023/12/13 06:45:20;;;;;;;1.60;1.30;;;8.20;98.20;;;;;;5074473;28;20492;-79
2023/12/13 06:47:48;;;;;;;1.60;1.20;;;8.20;98.20;;;;;;5072547;28;20507;-78
2023/12/13 06:50:15;;;;;;;1.70;1.30;;;8.20;98.20;;;;;;5070088;28;20477;-81
2023/12/13 06:52:43;;;;;;;1.60;1.20;;;8.20;98.20;;;;;;5056673;28;20566;-80
2023/12/13 06:55:16;;;;;;;1.67;1.30;;;8.20;98.20;;;;;;5076628;28;21073;-80
2023/12/13 06:57:43;;;;;;;1.60;1.10;;;8.30;98.20;;;;;;5051813;28;20546;-82
2023/12/13 07:00:11;;;;;;;1.70;1.30;;;8.30;98.20;;;;;;5075094;28;20480;-81
2023/12/13 07:02:38;;;;;;;1.60;1.20;;;8.30;98.20;;;;;;5067216;28;20558;-81
2023/12/13 07:05:07;;;;;;;1.60;1.10;;;8.30;98.20;;;;;;5080162;28;20453;-78
2023/12/13 07:07:36;;;;;;;1.60;1.20;;;8.30;98.20;;;;;;5071800;28;20588;-79
2023/12/13 07:10:04;;;;;;;1.60;1.17;;;8.30;98.20;;;;;;5076878;28;20484;-78
2023/12/13 07:12:32;;;;;;;1.60;1.30;;;8.30;98.20;;;;;;5051349;28;20557;-78
2023/12/13 07:15:03;;;;;;;1.60;1.20;;;8.30;98.20;;;;;;5077670;28;20546;-80
2023/12/13 07:17:30;;;;;;;1.60;1.17;;;8.40;98.20;;;;;;5062077;28;20537;-79
2023/12/13 07:19:57;;;;;;;1.60;1.20;;;8.30;98.20;;;;;;5075791;28;20965;-78
2023/12/13 07:22:23;;;;;;;1.60;1.20;;;8.30;98.20;;;;;;5066027;28;20507;-77
2023/12/13 07:24:50;;;;;;;1.60;1.30;;;8.30;98.20;;;;;;5075373;28;20980;-78
2023/12/13 07:27:17;;;;;;;1.60;1.20;;;8.30;98.20;;;;;;5068854;28;20477;-77
2023/12/13 07:29:45;;;;;;;1.60;1.30;;;8.30;98.20;;;;;;5075959;28;20453;-77
2023/12/13 07:32:12;;;;;;;1.70;1.40;;;8.30;98.20;;;;;;5056132;28;20482;-77
2023/12/13 07:34:41;;;;;;;1.67;1.20;;;8.30;98.20;;;;;;5067040;28;20489;-79
2023/12/13 07:37:08;;;;;;;1.60;1.30;;;8.30;98.20;;;;;;5066839;28;20660;-79
2023/12/13 07:39:36;;;;;;;1.63;1.20;;;8.30;98.20;;;;;;5065884;28;20454;-76
2023/12/13 07:42:04;;;;;;;1.60;1.20;;;8.30;98.20;;;;;;5054568;28;20497;-78
2023/12/13 07:44:32;;;;;;;1.60;1.10;;;8.30;98.20;;;;;;5061740;28;20476;-78
2023/12/13 07:47:01;;;;;;;1.60;1.30;;;8.30;98.20;;;;;;5059612;28;20848;-78
2023/12/13 07:49:28;;;;;;;1.70;1.50;;;8.30;98.20;;;;;;5067518;28;20467;-77
2023/12/13 07:51:55;;;;;;;1.60;1.20;;;8.20;98.20;;;;;;5064927;28;20503;-77
2023/12/13 07:54:22;;;;;;;1.60;1.20;;;8.30;98.20;;;;;;5074441;28;20481;-78
2023/12/13 07:56:52;;;;;;;1.70;1.30;;;8.20;98.20;;;;;;5060850;28;20502;-78
2023/12/13 07:59:19;;;;;;;1.60;1.20;;;8.20;98.20;;;;;;5070857;28;20494;-80
2023/12/13 08:01:46;;;;;;;1.60;1.20;;;8.20;98.20;;;;;;5062807;28;20478;-80
2023/12/13 08:04:15;;;;;;;1.60;1.20;;;8.20;98.20;;;;;;5077351;28;20868;-80
2023/12/13 08:06:42;;;;;;;1.60;1.20;;;8.20;98.20;;;;;;5060636;28;20540;-78
2023/12/13 08:09:10;;;;;;;1.60;1.20;;;8.20;98.20;;;;;;5070382;28;20544;-78
2023/12/13 08:11:37;;;;;;;1.63;1.20;;;8.20;98.20;;;;;;5053274;28;20491;-78
2023/12/13 08:14:04;;;;;;;1.60;1.17;;;8.20;98.20;;;;;;5068519;28;20587;-78
2023/12/13 08:16:31;;;;;;;1.63;1.20;;;8.20;98.20;;;;;;5058899;28;20481;-77
2023/12/13 08:18:57;;;;;;;1.60;1.30;;;8.20;98.20;;;;;;5068022;28;20458;-78
2023/12/13 08:21:26;;;;;;;1.60;1.20;;;8.20;98.20;;;;;;5059221;28;20508;-79
2023/12/13 08:23:52;;;;;;;1.60;1.20;;;8.20;98.20;;;;;;5070390;28;20497;-78
2023/12/13 08:26:20;;;;;;;1.60;1.10;;;8.20;98.20;;;;;;5055021;28;20653;-77
2023/12/13 08:28:46;;;;;;;1.60;1.20;;;8.20;98.20;;;;;;5062001;28;20461;-77
2023/12/13 08:31:13;;;;;;;1.60;1.20;;;8.20;98.20;;;;;;5059364;28;20473;-78
2023/12/13 08:33:42;;;;;;;1.67;1.30;;;8.30;98.20;;;;;;5071876;28;20466;-78
2023/12/13 08:36:11;;;;;;;1.60;1.10;;;8.20;98.20;;;;;;5060477;28;20536;-78
2023/12/13 08:38:41;;;;;;;1.60;1.20;;;8.20;98.20;;;;;;5074058;28;20488;-77
2023/12/13 08:41:08;;;;;;;1.60;1.20;;;8.30;98.20;;;;;;5051498;28;20479;-79
2023/12/13 08:43:35;;;;;;;1.60;1.20;;;8.30;98.20;;;;;;5063906;28;20497;-78
2023/12/13 08:46:02;;;;;;;1.60;1.20;;;8.30;98.20;;;;;;5056464;28;20455;-79
2023/12/13 08:48:31;;;;;;;1.60;1.10;;;8.30;98.20;;;;;;5067433;28;20462;-78
2023/12/13 08:50:58;;;;;;;1.60;1.10;;;8.30;98.20;;;;;;5061349;28;20477;-77
2023/12/13 08:53:25;;;;;;;1.60;1.30;;;8.30;98.20;;;;;;5071878;28;20463;-78
2023/12/13 08:55:53;;;;;;;1.60;1.20;;;8.30;98.20;;;;;;5056935;28;20486;-78
2023/12/13 08:58:20;;;;;;;1.60;1.20;;;8.30;98.20;;;;;;5062023;28;20913;-79
2023/12/13 09:00:47;;;;;;;3.70;2.90;;;8.30;98.20;;;;;;5060353;28;20485;-79
2023/12/13 09:03:19;;;;;;;1.60;1.20;;;8.40;98.20;;;;;;5060949;28;20485;-79
2023/12/13 09:05:46;;;;;;;1.60;1.20;;;8.40;98.20;;;;;;5066157;28;21102;-77
2023/12/13 09:08:13;;;;;;;1.60;1.10;;;8.40;98.20;;;;;;5055928;28;20500;-78
2023/12/13 09:10:39;;;;;;;1.63;1.20;;;8.40;98.20;;;;;;5068466;28;20482;-79
2023/12/13 09:13:08;;;;;;;1.70;1.30;;;8.40;98.20;;;;;;5066118;28;20486;-77
2023/12/13 09:15:34;;;;;;;1.60;1.10;;;8.40;98.20;;;;;;5073345;28;20513;-78
2023/12/13 09:18:01;;;;;;;1.60;1.10;;;8.40;98.20;;;;;;5066840;28;20503;-78
2023/12/13 09:20:28;;;;;;;1.60;1.17;;;8.40;98.20;;;;;;5062451;28;20560;-78
2023/12/13 09:22:55;;;;;;;1.60;1.20;;;8.50;98.20;;;;;;5060530;28;20477;-78
2023/12/13 09:25:22;;;;;;;1.60;1.20;;;8.50;98.20;;;;;;5061397;28;20454;-77
2023/12/13 09:27:48;;;;;;;1.63;1.13;;;8.50;98.20;;;;;;5053892;28;20480;-77
2023/12/13 09:30:17;;;;;;;1.60;1.10;;;8.50;98.20;;;;;;5063058;28;20473;-78
2023/12/13 09:32:44;;;;;;;1.60;1.20;;;8.60;98.20;;;;;;5052769;28;20480;-77
2023/12/13 09:35:16;;;;;;;1.63;1.20;;;8.60;98.20;;;;;;5065068;28;20489;-79
2023/12/13 09:37:43;;;;;;;1.60;1.10;;;8.60;98.20;;;;;;5057919;28;20516;-79
2023/12/13 09:40:15;;;;;;;1.60;1.10;;;8.70;98.20;;;;;;5063630;28;20481;-78
2023/12/13 09:42:45;;;;;;;1.60;1.10;;;8.70;98.20;;;;;;5030859;28;20889;-77
2023/12/13 09:45:16;;;;;;;1.60;1.10;;;8.70;98.20;;;;;;5058909;28;20492;-77
2023/12/13 09:47:56;;;;;;;1.60;1.10;;;8.70;98.20;;;;;;5053055;28;20587;-78
2023/12/13 09:50:24;;;;;;;1.60;1.20;;;8.70;98.20;;;;;;5060768;28;20501;-78
2023/12/13 09:52:53;;;;;;;1.60;1.20;;;8.70;98.20;;;;;;5054808;28;20492;-78
2023/12/13 09:55:20;;;;;;;1.60;1.10;;;8.70;98.20;;;;;;5059421;28;20940;-77
2023/12/13 09:57:47;;;;;;;1.60;1.20;;;8.70;98.20;;;;;;5050776;28;20485;-78
2023/12/13 10:00:14;;;;;;;1.60;1.20;;;8.70;98.20;;;;;;5058250;28;20811;-77
2023/12/13 10:02:41;;;;;;;1.60;1.10;;;8.70;98.20;;;;;;5049095;28;21072;-76
2023/12/13 10:05:12;;;;;;;1.60;1.20;;;8.80;98.20;;;;;;5058304;28;20457;-77
2023/12/13 10:07:40;;;;;;;1.60;1.20;;;8.80;98.20;;;;;;5050780;28;20568;-76
2023/12/13 10:10:07;;;;;;;1.60;1.10;;;8.80;98.20;;;;;;5055175;28;20557;-76
2023/12/13 10:12:35;;;;;;;1.60;1.20;;;8.80;98.20;;;;;;5042538;28;20474;-76
2023/12/13 10:15:08;;;;;;;1.60;1.10;;;8.80;98.20;;;;;;5053063;28;20866;-76
2023/12/13 10:17:35;;;;;;;1.60;1.10;;;8.90;98.20;;;;;;5034865;28;20486;-77
2023/12/13 10:20:03;;;;;;;1.60;1.20;;;8.90;98.20;;;;;;5053995;28;20962;-77
2023/12/13 10:22:34;;;;;;;1.60;1.20;;;9.00;98.20;;;;;;5038145;28;20483;-78
2023/12/13 10:25:01;;;;;;;1.60;1.20;;;9.00;98.20;;;;;;5056068;28;20462;-79
2023/12/13 10:27:28;;;;;;;1.60;1.10;;;9.10;98.20;;;;;;5057106;28;20489;-77
2023/12/13 10:29:56;;;;;;;1.60;1.20;;;9.00;98.20;;;;;;5065640;28;20501;-76
2023/12/13 10:32:23;;;;;;;1.60;1.20;;;9.10;98.20;;;;;;5049893;28;20916;-76
2023/12/13 10:34:49;;;;;;;1.60;1.20;;;9.10;98.20;;;;;;5055639;28;20461;-76
2023/12/13 10:37:17;;;;;;;1.60;1.13;;;9.10;98.20;;;;;;5052681;28;20481;-78
2023/12/13 10:39:46;;;;;;;1.60;1.20;;;9.10;98.20;;;;;;5057856;28;20485;-76
2023/12/13 10:42:16;;;;;;;1.60;1.10;;;9.20;98.20;;;;;;5051719;28;20488;-76
2023/12/13 10:44:47;;;;;;;1.60;1.00;;;9.20;98.20;;;;;;5055964;28;21476;-76
2023/12/13 10:47:15;;;;;;;1.60;1.20;;;9.20;98.20;;;;;;5055010;28;20556;-76
2023/12/13 10:49:44;;;;;;;1.60;1.10;;;9.20;98.20;;;;;;5059980;28;20462;-76
2023/12/13 10:52:12;;;;;;;1.60;1.10;;;9.20;98.20;;;;;;5053990;28;20554;-76
2023/12/13 10:54:40;;;;;;;1.60;1.10;;;9.20;98.20;;;;;;5063591;28;20457;-76
2023/12/13 10:57:12;;;;;;;1.60;1.10;;;9.30;98.20;;;;;;5042677;28;20484;-76
2023/12/13 10:59:41;;;;;;;1.60;1.10;;;9.30;98.20;;;;;;5055814;28;20681;-76
2023/12/13 11:02:09;;;;;;;1.60;1.10;;;9.40;98.20;;;;;;5054594;28;20489;-77
2023/12/13 11:04:37;;;;;;;1.60;1.17;;;9.40;98.20;;;;;;5060610;28;20571;-77
2023/12/13 11:07:04;;;;;;;1.60;1.10;;;9.50;98.20;;;;;;5053258;28;20504;-77
2023/12/13 11:09:31;;;;;;;1.60;1.20;;;9.50;98.20;;;;;;5060612;28;20463;-77
2023/12/13 11:11:59;;;;;;;1.60;1.10;;;9.60;98.20;;;;;;5049136;28;21083;-77
2023/12/13 11:14:27;;;;;;;1.60;1.10;;;9.60;98.20;;;;;;5063661;28;20453;-76
2023/12/13 11:16:58;;;;;;;1.60;1.10;;;9.60;98.20;;;;;;5046367;28;20473;-78
2023/12/13 11:19:27;;;;;;;1.60;1.20;;;9.70;98.20;;;;;;5062542;28;20557;-77
2023/12/13 11:21:56;;;;;;;1.60;1.10;;;9.70;98.20;;;;;;5043009;28;20482;-78
2023/12/13 11:24:25;;;;;;;1.67;1.10;;;9.70;98.20;;;;;;5056625;28;20943;-78
2023/12/13 11:26:53;;;;;;;1.60;1.10;;;9.80;98.20;;;;;;5048284;28;20482;-80
2023/12/13 11:29:23;;;;;;;1.60;1.10;;;9.80;98.20;;;;;;5059477;28;20467;-77
2023/12/13 11:31:53;;;;;;;1.60;1.10;;;9.80;98.20;;;;;;5057253;28;20592;-77
2023/12/13 11:34:31;;;;;;;1.60;1.10;;;9.90;98.20;;;;;;5065260;28;20484;-77
2023/12/13 11:36:59;;;;;;;1.60;1.10;;;9.90;98.20;;;;;;5057398;28;20484;-78
2023/12/13 11:39:27;;;;;;;1.60;1.10;;;9.80;98.20;;;;;;5067047;28;20461;-79
2023/12/13 11:41:53;;;;;;;1.60;1.10;;;9.80;98.20;;;;;;5050148;28;20590;-79
2023/12/13 11:44:20;;;;;;;1.60;1.10;;;9.80;98.20;;;;;;5061596;28;20468;-79
2023/12/13 11:46:55;;;;;;;1.60;1.10;;;9.80;98.20;;;;;;5046983;28;20640;-78
2023/12/13 11:49:22;;;;;;;1.67;1.20;;;9.80;98.20;;;;;;5061399;28;20564;-79
2023/12/13 11:51:49;;;;;;;1.60;1.17;;;9.80;98.20;;;;;;5061072;28;20515;-79
2023/12/13 11:54:16;;;;;;;1.60;1.10;;;9.80;98.20;;;;;;5065906;28;20457;-77
2023/12/13 11:56:43;;;;;;;1.60;1.00;;;9.80;98.20;;;;;;5043846;28;20509;-77
2023/12/13 11:59:20;;;;;;;1.60;1.10;;;9.80;98.20;;;;;;5054290;28;20466;-77
2023/12/13 12:01:47;;;;;;;1.60;1.10;;;9.90;98.20;;;;;;5055008;28;20983;-75
2023/12/13 12:04:18;;;;;;;1.60;1.17;;;9.90;98.20;;;;;;5066761;28;20476;-76
2023/12/13 12:06:48;;;;;;;1.60;1.10;;;9.90;98.20;;;;;;5056545;28;20485;-77
2023/12/13 12:09:17;;;;;;;1.60;1.10;;;9.90;98.20;;;;;;5068368;28;20880;-76
2023/12/13 12:11:44;;;;;;;1.60;1.10;;;9.90;98.20;;;;;;5055797;28;22141;-77
2023/12/13 12:14:11;;;;;;;1.60;1.10;;;10.00;98.20;;;;;;5067509;28;20465;-76
2023/12/13 12:16:39;;;;;;;1.60;1.10;;;10.00;98.20;;;;;;5058361;28;20979;-75
2023/12/13 12:19:07;;;;;;;1.60;1.10;;;10.00;98.20;;;;;;5067932;28;20630;-77
2023/12/13 12:21:37;;;;;;;1.60;1.10;;;10.00;98.20;;;;;;5047141;28;20913;-77
2023/12/13 12:24:05;;;;;;;1.63;1.20;;;10.00;98.20;;;;;;5050681;28;20449;-76
2023/12/13 12:26:33;;;;;;;1.60;1.10;;;10.10;98.20;;;;;;5044375;28;20467;-76
2023/12/13 12:29:00;;;;;;;1.60;1.10;;;10.10;98.20;;;;;;5055589;28;21520;-76
2023/12/13 12:31:27;;;;;;;1.60;1.10;;;10.10;98.20;;;;;;5048464;28;20487;-76
2023/12/13 12:33:55;;;;;;;1.60;1.17;;;10.10;98.20;;;;;;5052747;28;20931;-77
2023/12/13 12:36:22;;;;;;;1.60;1.20;;;10.10;98.20;;;;;;5054292;28;20862;-76
2023/12/13 12:38:51;;;;;;;1.60;1.10;;;10.10;98.20;;;;;;5064015;28;20548;-76
2023/12/13 12:41:18;;;;;;;1.60;1.10;;;10.20;98.20;;;;;;5047463;28;20478;-78
2023/12/13 12:43:46;;;;;;;1.60;1.10;;;10.20;98.20;;;;;;5062164;28;20555;-75
2023/12/13 12:46:15;;;;;;;1.60;1.00;;;10.20;98.20;;;;;;5052088;28;20473;-76
2023/12/13 12:48:42;;;;;;;1.60;1.10;;;10.30;98.20;;;;;;5063103;28;20518;-75
2023/12/13 12:51:09;;;;;;;1.60;1.20;;;10.30;98.20;;;;;;5051435;28;20484;-75
2023/12/13 12:53:39;;;;;;;1.60;1.10;;;10.30;98.20;;;;;;5057531;28;20471;-77
2023/12/13 12:56:09;;;;;;;1.60;1.20;;;10.30;98.20;;;;;;5053385;28;20480;-77
2023/12/13 12:58:37;;;;;;;1.60;1.10;;;10.30;98.20;;;;;;5063359;28;20461;-77
2023/12/13 13:01:04;;;;;;;1.60;1.10;;;10.40;98.20;;;;;;5052795;28;20544;-77
2023/12/13 13:03:31;;;;;;;1.60;1.20;;;10.40;98.20;;;;;;5052376;28;20476;-76
2023/12/13 13:05:58;;;;;;;2.83;2.33;;;10.40;98.20;;;;;;5047439;28;20508;-78
2023/12/13 13:08:25;;;;;;;1.60;1.17;;;10.40;98.20;;;;;;5055417;28;20516;-77